Time;durP1;ratioP1;P1;durP2;ratioP2;P2;SDS_P1;SDS_P2;PMS_P1;PMS_P2;Temp;Humidity;BMP_temperature;BMP_pressure;BME280_temperature;BME280_humidity;BME280_pressure;Samples;Min_cycle;Max_cycle;Signal;HPM_P1;HPM_P2
2023/01/23 00:01:12;;;;;;;0.30;0.30;;;;;;;;;;5073040;28;20484;-69
2023/01/23 00:03:38;;;;;;;0.20;0.20;;;;;;;;;;5083279;28;20503;-70
2023/01/23 00:06:05;;;;;;;0.57;0.57;;;;;;;;;;5072891;28;20495;-69
2023/01/23 00:08:32;;;;;;;0.20;0.20;;;;;;;;;;5083399;28;20395;-70
2023/01/23 00:11:00;;;;;;;3.13;3.00;;;;;;;;;;5072992;28;20490;-70
2023/01/23 00:13:26;;;;;;;0.20;0.20;;;;;;;;;;5083294;28;20276;-70
2023/01/23 00:15:53;;;;;;;0.20;0.20;;;;;;;;;;5073151;28;20241;-70
2023/01/23 00:18:19;;;;;;;0.20;0.20;;;;;;;;;;5082768;28;20265;-69
2023/01/23 00:20:45;;;;;;;0.27;0.27;;;;;;;;;;5072871;28;20311;-69
2023/01/23 00:23:12;;;;;;;0.20;0.20;;;;;;;;;;5083091;28;20516;-70
2023/01/23 00:25:38;;;;;;;0.20;0.20;;;;;;;;;;5073030;28;20488;-70
2023/01/23 00:28:06;;;;;;;0.20;0.20;;;;;;;;;;5082489;28;20211;-70
2023/01/23 00:30:33;;;;;;;0.20;0.20;;;;;;;;;;5072828;28;20242;-69
2023/01/23 00:32:59;;;;;;;0.30;0.30;;;;;;;;;;5082606;28;20192;-69
2023/01/23 00:35:26;;;;;;;0.20;0.20;;;;;;;;;;5072827;28;20281;-70
2023/01/23 00:37:52;;;;;;;0.20;0.20;;;;;;;;;;5082708;28;20221;-70
2023/01/23 00:40:18;;;;;;;0.20;0.20;;;;;;;;;;5073114;28;20239;-69
2023/01/23 00:42:45;;;;;;;0.20;0.20;;;;;;;;;;5082432;28;20510;-69
2023/01/23 00:45:12;;;;;;;0.20;0.20;;;;;;;;;;5073056;28;20378;-68
2023/01/23 00:47:39;;;;;;;0.20;0.20;;;;;;;;;;5082524;28;20263;-71
2023/01/23 00:50:05;;;;;;;0.30;0.30;;;;;;;;;;5083199;28;20224;-69
2023/01/23 00:52:32;;;;;;;0.20;0.20;;;;;;;;;;5071760;28;20220;-69
2023/01/23 00:54:58;;;;;;;0.20;0.20;;;;;;;;;;5083373;28;20338;-69
2023/01/23 00:57:25;;;;;;;0.20;0.20;;;;;;;;;;5069339;28;20248;-69
2023/01/23 00:59:51;;;;;;;0.20;0.20;;;;;;;;;;5063032;28;20242;-70
2023/01/23 01:02:19;;;;;;;0.20;0.20;;;;;;;;;;5068485;28;20240;-70
2023/01/23 01:04:45;;;;;;;0.20;0.20;;;;;;;;;;5062882;28;20236;-70
2023/01/23 01:07:11;;;;;;;0.20;0.20;;;;;;;;;;5068343;28;20304;-70
2023/01/23 01:09:38;;;;;;;0.20;0.20;;;;;;;;;;5062947;28;20237;-70
2023/01/23 01:12:05;;;;;;;0.20;0.20;;;;;;;;;;5068003;28;20523;-70
2023/01/23 01:14:31;;;;;;;0.20;0.20;;;;;;;;;;5063005;28;20252;-69
2023/01/23 01:16:58;;;;;;;0.20;0.20;;;;;;;;;;5068927;28;20494;-70
2023/01/23 01:19:27;;;;;;;0.20;0.20;;;;;;;;;;5068042;28;20451;-70
2023/01/23 01:21:53;;;;;;;0.20;0.20;;;;;;;;;;5070107;28;20248;-70
2023/01/23 01:24:19;;;;;;;0.30;0.30;;;;;;;;;;5068195;28;20277;-69
2023/01/23 01:26:46;;;;;;;0.20;0.20;;;;;;;;;;5068886;28;20260;-69
2023/01/23 01:29:12;;;;;;;0.20;0.20;;;;;;;;;;5069086;28;20260;-70
2023/01/23 01:31:38;;;;;;;0.27;0.27;;;;;;;;;;5068006;28;20256;-70
2023/01/23 01:34:05;;;;;;;0.20;0.20;;;;;;;;;;5070040;28;20282;-70
2023/01/23 01:36:32;;;;;;;0.20;0.20;;;;;;;;;;5066981;28;20235;-69
2023/01/23 01:38:59;;;;;;;0.20;0.20;;;;;;;;;;5071078;28;20289;-69
2023/01/23 01:41:25;;;;;;;0.20;0.20;;;;;;;;;;5066128;28;20262;-70
2023/01/23 01:43:55;;;;;;;5.30;4.90;;;;;;;;;;5071531;28;20206;-70
2023/01/23 01:46:22;;;;;;;0.20;0.20;;;;;;;;;;5065783;28;20456;-70
2023/01/23 01:48:57;;;;;;;0.20;0.20;;;;;;;;;;5071831;28;20209;-70
2023/01/23 01:51:26;;;;;;;0.20;0.20;;;;;;;;;;5065752;28;20309;-69
2023/01/23 01:53:57;;;;;;;0.20;0.20;;;;;;;;;;5071249;28;20233;-69
2023/01/23 01:56:25;;;;;;;6.40;4.70;;;;;;;;;;5065784;28;20305;-69
2023/01/23 01:58:52;;;;;;;0.20;0.20;;;;;;;;;;5071391;28;20295;-70
2023/01/23 02:01:19;;;;;;;0.20;0.20;;;;;;;;;;5065114;28;20247;-68
2023/01/23 02:03:45;;;;;;;0.20;0.20;;;;;;;;;;5072341;28;20509;-70
2023/01/23 02:06:12;;;;;;;0.20;0.20;;;;;;;;;;5063974;28;20308;-69
2023/01/23 02:08:42;;;;;;;0.20;0.20;;;;;;;;;;5072792;28;20202;-70
2023/01/23 02:11:10;;;;;;;0.20;0.20;;;;;;;;;;5063676;28;20267;-70
2023/01/23 02:13:38;;;;;;;0.20;0.20;;;;;;;;;;5073282;28;20434;-71
2023/01/23 02:16:06;;;;;;;0.20;0.20;;;;;;;;;;5062795;28;20569;-70
2023/01/23 02:18:34;;;;;;;0.30;0.30;;;;;;;;;;5073665;28;20471;-70
2023/01/23 02:21:03;;;;;;;0.20;0.20;;;;;;;;;;5062389;28;20254;-71
2023/01/23 02:23:34;;;;;;;0.27;0.27;;;;;;;;;;5073702;28;20244;-70
2023/01/23 02:26:03;;;;;;;0.20;0.20;;;;;;;;;;5062159;28;20350;-70
2023/01/23 02:28:37;;;;;;;0.63;0.63;;;;;;;;;;5073522;28;20212;-70
2023/01/23 02:31:03;;;;;;;0.20;0.20;;;;;;;;;;5062472;28;20305;-70
2023/01/23 02:33:47;;;;;;;0.20;0.20;;;;;;;;;;5073758;28;20267;-70
2023/01/23 02:36:13;;;;;;;0.20;0.20;;;;;;;;;;5063658;28;20449;-70
2023/01/23 02:38:44;;;;;;;0.20;0.20;;;;;;;;;;5072277;28;20624;-70
2023/01/23 02:41:13;;;;;;;0.23;0.23;;;;;;;;;;5063282;28;20635;-70
2023/01/23 02:43:40;;;;;;;0.20;0.20;;;;;;;;;;5072456;28;20293;-70
2023/01/23 02:46:07;;;;;;;0.20;0.20;;;;;;;;;;5062528;28;20306;-70
2023/01/23 02:48:33;;;;;;;0.20;0.20;;;;;;;;;;5072683;28;20233;-70
2023/01/23 02:51:00;;;;;;;0.20;0.20;;;;;;;;;;5061513;28;20299;-70
2023/01/23 02:53:26;;;;;;;0.20;0.20;;;;;;;;;;5073429;28;20237;-71
2023/01/23 02:55:52;;;;;;;0.20;0.20;;;;;;;;;;5060734;28;20299;-70
2023/01/23 03:01:04;;;;;;;0.20;0.20;;;;;;;;;;5062073;28;20270;-70
2023/01/23 03:03:31;;;;;;;0.23;0.23;;;;;;;;;;5073072;28;20213;-70
2023/01/23 03:05:58;;;;;;;0.20;0.20;;;;;;;;;;5060907;28;20243;-70
2023/01/23 03:08:33;;;;;;;0.20;0.20;;;;;;;;;;5073762;28;20209;-70
2023/01/23 03:10:59;;;;;;;0.20;0.20;;;;;;;;;;5061224;28;20467;-70
2023/01/23 03:13:27;;;;;;;0.20;0.20;;;;;;;;;;5073497;28;20277;-70
2023/01/23 03:15:53;;;;;;;0.20;0.20;;;;;;;;;;5060416;28;20242;-71
2023/01/23 03:18:20;;;;;;;0.27;0.27;;;;;;;;;;5073985;28;20262;-70
2023/01/23 03:20:46;;;;;;;0.20;0.20;;;;;;;;;;5059406;28;20424;-70
2023/01/23 03:23:13;;;;;;;0.20;0.20;;;;;;;;;;5074911;28;20233;-70
2023/01/23 03:25:42;;;;;;;0.20;0.20;;;;;;;;;;5058534;28;20523;-70
2023/01/23 03:30:11;;;;;;;0.20;0.20;;;;;;;;;;5074992;28;20211;-70
2023/01/23 03:30:56;;;;;;;4.70;1.40;;;;;;;;;;5060286;28;20240;-70
2023/01/23 03:33:22;;;;;;;0.20;0.20;;;;;;;;;;5073435;28;20297;-70
2023/01/23 03:35:49;;;;;;;0.30;0.30;;;;;;;;;;5059548;28;20247;-70
2023/01/23 03:38:18;;;;;;;0.20;0.20;;;;;;;;;;5073809;28;20298;-70
2023/01/23 03:43:30;;;;;;;0.30;0.30;;;;;;;;;;5072337;28;20197;-70
2023/01/23 03:45:58;;;;;;;0.20;0.20;;;;;;;;;;5060179;28;20310;-70
2023/01/23 03:48:24;;;;;;;0.20;0.20;;;;;;;;;;5073003;28;20395;-70
2023/01/23 03:50:51;;;;;;;0.20;0.20;;;;;;;;;;5059550;28;20251;-70
2023/01/23 03:53:17;;;;;;;0.20;0.20;;;;;;;;;;5073506;28;20213;-69
2023/01/23 03:55:44;;;;;;;0.20;0.20;;;;;;;;;;5058444;28;20304;-70
2023/01/23 03:58:11;;;;;;;0.20;0.20;;;;;;;;;;5074591;28;20264;-70
2023/01/23 04:00:37;;;;;;;0.20;0.20;;;;;;;;;;5057374;28;20247;-69
2023/01/23 04:03:05;;;;;;;0.30;0.30;;;;;;;;;;5075522;28;20221;-70
2023/01/23 04:05:31;;;;;;;0.20;0.20;;;;;;;;;;5056511;28;20257;-70
2023/01/23 04:07:58;;;;;;;0.20;0.20;;;;;;;;;;5075915;28;20194;-69
2023/01/23 04:10:24;;;;;;;0.20;0.20;;;;;;;;;;5055512;28;20281;-69
2023/01/23 04:12:50;;;;;;;0.20;0.20;;;;;;;;;;5076877;28;20216;-70
2023/01/23 04:15:17;;;;;;;0.20;0.20;;;;;;;;;;5054541;28;20601;-70
2023/01/23 04:17:43;;;;;;;0.20;0.20;;;;;;;;;;5077964;28;20225;-69
2023/01/23 04:20:11;;;;;;;0.20;0.20;;;;;;;;;;5053773;28;20203;-69
2023/01/23 04:22:38;;;;;;;0.20;0.20;;;;;;;;;;5078424;28;20201;-70
2023/01/23 04:25:04;;;;;;;0.20;0.20;;;;;;;;;;5063598;28;20271;-69
2023/01/23 04:27:31;;;;;;;0.20;0.20;;;;;;;;;;5068623;28;20241;-70
2023/01/23 04:29:57;;;;;;;0.20;0.20;;;;;;;;;;5063535;28;20200;-70
2023/01/23 04:32:24;;;;;;;0.20;0.20;;;;;;;;;;5068770;28;20479;-70
2023/01/23 04:34:50;;;;;;;0.30;0.30;;;;;;;;;;5063548;28;20206;-69
2023/01/23 04:37:18;;;;;;;0.20;0.20;;;;;;;;;;5068783;28;20307;-70
2023/01/23 04:39:44;;;;;;;0.20;0.20;;;;;;;;;;5063139;28;20288;-69
2023/01/23 04:42:11;;;;;;;0.20;0.20;;;;;;;;;;5068529;28;20247;-69
2023/01/23 04:44:37;;;;;;;0.20;0.20;;;;;;;;;;5063144;28;20206;-69
2023/01/23 04:47:03;;;;;;;0.20;0.20;;;;;;;;;;5068080;28;20562;-69
2023/01/23 04:49:30;;;;;;;0.27;0.27;;;;;;;;;;5063785;28;20274;-70
2023/01/23 04:51:56;;;;;;;0.20;0.20;;;;;;;;;;5069115;28;20261;-69
2023/01/23 04:54:24;;;;;;;0.50;0.50;;;;;;;;;;5068442;28;20244;-70
2023/01/23 04:56:50;;;;;;;0.20;0.20;;;;;;;;;;5070474;28;20250;-70
2023/01/23 04:59:16;;;;;;;0.20;0.20;;;;;;;;;;5069199;28;20317;-70
2023/01/23 05:01:43;;;;;;;0.20;0.20;;;;;;;;;;5069043;28;20244;-70
2023/01/23 05:04:09;;;;;;;0.20;0.20;;;;;;;;;;5070174;28;20275;-70
2023/01/23 05:06:36;;;;;;;0.20;0.20;;;;;;;;;;5066837;28;20306;-70
2023/01/23 05:09:02;;;;;;;0.20;0.20;;;;;;;;;;5072095;28;20273;-70
2023/01/23 05:11:30;;;;;;;11.03;10.30;;;;;;;;;;5067023;28;20286;-70
2023/01/23 05:13:56;;;;;;;0.20;0.20;;;;;;;;;;5071765;28;20562;-70
2023/01/23 05:16:23;;;;;;;0.30;0.30;;;;;;;;;;5066493;28;20299;-70
2023/01/23 05:18:49;;;;;;;0.20;0.20;;;;;;;;;;5072518;28;20353;-70
2023/01/23 05:21:15;;;;;;;0.73;0.73;;;;;;;;;;5065384;28;20572;-70
2023/01/23 05:23:42;;;;;;;0.20;0.20;;;;;;;;;;5073451;28;20475;-70
2023/01/23 05:26:08;;;;;;;0.20;0.20;;;;;;;;;;5064303;28;20492;-70
2023/01/23 05:28:36;;;;;;;0.20;0.20;;;;;;;;;;5074031;28;20248;-71
2023/01/23 05:31:02;;;;;;;0.23;0.23;;;;;;;;;;5063399;28;20305;-70
2023/01/23 05:33:28;;;;;;;0.20;0.20;;;;;;;;;;5075020;28;20212;-70
2023/01/23 05:35:58;;;;;;;0.20;0.20;;;;;;;;;;5062436;28;20264;-70
2023/01/23 05:38:24;;;;;;;0.20;0.20;;;;;;;;;;5075314;28;20512;-70
2023/01/23 05:40:51;;;;;;;0.73;0.73;;;;;;;;;;5061857;28;20309;-70
2023/01/23 05:43:17;;;;;;;0.20;0.20;;;;;;;;;;5076250;28;20252;-70
2023/01/23 05:45:45;;;;;;;0.23;0.23;;;;;;;;;;5060733;28;20242;-70
2023/01/23 05:48:12;;;;;;;0.20;0.20;;;;;;;;;;5076597;28;20211;-70
2023/01/23 05:50:38;;;;;;;0.20;0.20;;;;;;;;;;5060104;28;20431;-70
2023/01/23 05:53:04;;;;;;;0.20;0.20;;;;;;;;;;5077804;28;20386;-70
2023/01/23 05:55:31;;;;;;;0.50;0.50;;;;;;;;;;5059033;28;20466;-71
2023/01/23 05:57:57;;;;;;;0.10;0.10;;;;;;;;;;5078805;28;20221;-70
2023/01/23 06:00:23;;;;;;;0.20;0.20;;;;;;;;;;5057618;28;20256;-70
2023/01/23 06:02:51;;;;;;;0.20;0.20;;;;;;;;;;5079151;28;20217;-70
2023/01/23 06:05:17;;;;;;;0.20;0.20;;;;;;;;;;5057149;28;20285;-70
2023/01/23 06:07:44;;;;;;;0.20;0.20;;;;;;;;;;5080198;28;20253;-70
2023/01/23 06:10:10;;;;;;;0.20;0.20;;;;;;;;;;5056140;28;20273;-69
2023/01/23 06:12:37;;;;;;;0.20;0.20;;;;;;;;;;5080781;28;20272;-70
2023/01/23 06:15:03;;;;;;;0.20;0.20;;;;;;;;;;5065976;28;20249;-70
2023/01/23 06:17:30;;;;;;;0.20;0.20;;;;;;;;;;5071312;28;20305;-69
2023/01/23 06:19:58;;;;;;;0.20;0.20;;;;;;;;;;5065463;28;20244;-70
2023/01/23 06:22:24;;;;;;;0.20;0.20;;;;;;;;;;5070802;28;20288;-69
2023/01/23 06:24:51;;;;;;;0.20;0.20;;;;;;;;;;5065773;28;20275;-69
2023/01/23 06:27:17;;;;;;;0.20;0.20;;;;;;;;;;5070826;28;20589;-69
2023/01/23 06:29:44;;;;;;;0.20;0.20;;;;;;;;;;5065341;28;20282;-69
2023/01/23 06:32:10;;;;;;;0.57;0.57;;;;;;;;;;5070664;28;20458;-69
2023/01/23 06:34:37;;;;;;;0.20;0.20;;;;;;;;;;5065250;28;20212;-70
2023/01/23 06:37:04;;;;;;;0.20;0.20;;;;;;;;;;5072450;28;20261;-70
2023/01/23 06:39:31;;;;;;;0.27;0.27;;;;;;;;;;5068219;28;20229;-69
2023/01/23 06:41:57;;;;;;;0.20;0.20;;;;;;;;;;5069286;28;20239;-69
2023/01/23 06:44:23;;;;;;;0.20;0.20;;;;;;;;;;5066648;28;20272;-69
2023/01/23 06:46:52;;;;;;;0.20;0.20;;;;;;;;;;5068081;28;20322;-69
2023/01/23 06:49:18;;;;;;;9.97;9.20;;;;;;;;;;5067088;28;20201;-69
2023/01/23 06:51:44;;;;;;;0.20;0.20;;;;;;;;;;5067320;28;20303;-69
2023/01/23 06:54:12;;;;;;;0.20;0.20;;;;;;;;;;5067723;28;20235;-69
2023/01/23 06:56:38;;;;;;;0.20;0.20;;;;;;;;;;5066565;28;20252;-69
2023/01/23 06:59:05;;;;;;;0.20;0.20;;;;;;;;;;5068577;28;20257;-69
2023/01/23 07:01:32;;;;;;;0.20;0.20;;;;;;;;;;5065600;28;20305;-69
2023/01/23 07:03:58;;;;;;;0.20;0.20;;;;;;;;;;5069349;28;20453;-70
2023/01/23 07:06:25;;;;;;;0.20;0.20;;;;;;;;;;5064519;28;20264;-70
2023/01/23 07:08:51;;;;;;;0.20;0.20;;;;;;;;;;5070302;28;20212;-69
2023/01/23 07:11:19;;;;;;;0.20;0.20;;;;;;;;;;5063514;28;20264;-70
2023/01/23 07:13:45;;;;;;;0.20;0.20;;;;;;;;;;5070190;28;20277;-69
2023/01/23 07:16:11;;;;;;;0.20;0.20;;;;;;;;;;5062663;28;20306;-70
2023/01/23 07:18:38;;;;;;;0.20;0.20;;;;;;;;;;5071711;28;20277;-70
2023/01/23 07:21:05;;;;;;;0.20;0.20;;;;;;;;;;5061644;28;20257;-70
2023/01/23 07:23:32;;;;;;;4.43;4.13;;;;;;;;;;5072535;28;20210;-70
2023/01/23 07:25:59;;;;;;;0.20;0.20;;;;;;;;;;5060892;28;20502;-69
2023/01/23 07:28:27;;;;;;;0.20;0.20;;;;;;;;;;5072973;28;20244;-69
2023/01/23 07:30:53;;;;;;;0.20;0.20;;;;;;;;;;5060015;28;20307;-70
2023/01/23 07:33:19;;;;;;;0.20;0.20;;;;;;;;;;5073805;28;20266;-68
2023/01/23 07:35:46;;;;;;;0.20;0.20;;;;;;;;;;5059118;28;20306;-70
2023/01/23 07:38:12;;;;;;;0.20;0.20;;;;;;;;;;5074753;28;20205;-70
2023/01/23 07:40:41;;;;;;;0.20;0.20;;;;;;;;;;5057936;28;20454;-70
2023/01/23 07:43:07;;;;;;;0.20;0.20;;;;;;;;;;5075280;28;20206;-70
2023/01/23 07:45:36;;;;;;;0.20;0.20;;;;;;;;;;5057418;28;20342;-71
2023/01/23 07:48:03;;;;;;;0.20;0.20;;;;;;;;;;5075755;28;20217;-70
2023/01/23 07:50:30;;;;;;;0.20;0.20;;;;;;;;;;5056550;28;20239;-71
2023/01/23 07:52:56;;;;;;;0.20;0.20;;;;;;;;;;5076688;28;20281;-70
2023/01/23 07:55:22;;;;;;;0.20;0.20;;;;;;;;;;5055793;28;20378;-70
2023/01/23 07:57:49;;;;;;;0.30;0.30;;;;;;;;;;5077260;28;20285;-69
2023/01/23 08:00:16;;;;;;;0.20;0.20;;;;;;;;;;5054789;28;20245;-70
2023/01/23 08:02:43;;;;;;;0.20;0.20;;;;;;;;;;5078210;28;20236;-69
2023/01/23 08:05:10;;;;;;;0.80;0.80;;;;;;;;;;5053773;28;20220;-71
2023/01/23 08:07:36;;;;;;;0.20;0.20;;;;;;;;;;5078878;28;20217;-71
2023/01/23 08:10:03;;;;;;;0.20;0.20;;;;;;;;;;5063631;28;20272;-71
2023/01/23 08:12:29;;;;;;;0.40;0.40;;;;;;;;;;5068922;28;20241;-70
2023/01/23 08:14:55;;;;;;;0.20;0.20;;;;;;;;;;5063528;28;20249;-69
2023/01/23 08:17:22;;;;;;;1.60;1.50;;;;;;;;;;5068993;28;20259;-70
2023/01/23 08:19:50;;;;;;;0.20;0.20;;;;;;;;;;5063398;28;20255;-70
2023/01/23 08:22:16;;;;;;;0.37;0.37;;;;;;;;;;5068910;28;20606;-70
2023/01/23 08:24:42;;;;;;;2.30;1.70;;;;;;;;;;5063447;28;20458;-70
2023/01/23 08:27:09;;;;;;;0.20;0.20;;;;;;;;;;5068632;28;20271;-70
2023/01/23 08:29:35;;;;;;;0.40;0.40;;;;;;;;;;5063671;28;20202;-71
2023/01/23 08:32:01;;;;;;;0.20;0.20;;;;;;;;;;5068000;28;20272;-70
2023/01/23 08:34:28;;;;;;;5.20;4.80;;;;;;;;;;5064187;28;20273;-70
2023/01/23 08:36:55;;;;;;;0.30;0.30;;;;;;;;;;5067012;28;20300;-71
2023/01/23 08:39:23;;;;;;;0.60;0.60;;;;;;;;;;5064922;28;20243;-70
2023/01/23 08:41:49;;;;;;;0.20;0.20;;;;;;;;;;5066117;28;20296;-70
2023/01/23 08:44:16;;;;;;;0.30;0.30;;;;;;;;;;5065737;28;20322;-70
2023/01/23 08:46:43;;;;;;;0.20;0.20;;;;;;;;;;5065396;28;20244;-70
2023/01/23 08:49:10;;;;;;;0.20;0.20;;;;;;;;;;5066582;28;20546;-71
2023/01/23 08:51:36;;;;;;;0.60;0.60;;;;;;;;;;5064590;28;20308;-70
2023/01/23 08:54:04;;;;;;;0.20;0.20;;;;;;;;;;5066886;28;20274;-70
2023/01/23 08:56:31;;;;;;;0.40;0.40;;;;;;;;;;5064128;28;20311;-68
2023/01/23 08:58:57;;;;;;;5.20;0.70;;;;;;;;;;5067917;28;20373;-70
2023/01/23 09:01:25;;;;;;;0.20;0.20;;;;;;;;;;5062920;28;20256;-69
2023/01/23 09:03:51;;;;;;;0.20;0.20;;;;;;;;;;5068848;28;20206;-73
2023/01/23 09:06:18;;;;;;;0.20;0.20;;;;;;;;;;5062092;28;20255;-73
2023/01/23 09:08:45;;;;;;;1.37;1.37;;;;;;;;;;5069576;28;20254;-71
2023/01/23 09:11:13;;;;;;;0.20;0.20;;;;;;;;;;5061318;28;20304;-72
2023/01/23 09:13:39;;;;;;;0.20;0.20;;;;;;;;;;5070029;28;20399;-71
2023/01/23 09:16:08;;;;;;;0.20;0.20;;;;;;;;;;5060489;28;20302;-71
2023/01/23 09:18:34;;;;;;;0.77;0.77;;;;;;;;;;5070420;28;20399;-72
2023/01/23 09:21:08;;;;;;;2.83;2.73;;;;;;;;;;5059815;28;20307;-74
2023/01/23 09:23:34;;;;;;;0.20;0.20;;;;;;;;;;5070829;28;20205;-74
2023/01/23 09:26:05;;;;;;;1.57;1.57;;;;;;;;;;5059704;28;20237;-73
2023/01/23 09:28:33;;;;;;;0.20;0.20;;;;;;;;;;5071023;28;20222;-72
2023/01/23 09:31:02;;;;;;;0.20;0.20;;;;;;;;;;5059208;28;20245;-73
2023/01/23 09:33:28;;;;;;;0.20;0.20;;;;;;;;;;5071431;28;20246;-74
2023/01/23 09:35:55;;;;;;;0.20;0.20;;;;;;;;;;5058893;28;20252;-73
2023/01/23 09:38:21;;;;;;;0.20;0.20;;;;;;;;;;5074778;28;20229;-73
2023/01/23 09:40:50;;;;;;;0.20;0.20;;;;;;;;;;5061431;28;20242;-72
2023/01/23 09:43:22;;;;;;;0.20;0.20;;;;;;;;;;5076382;28;20205;-72
2023/01/23 09:45:53;;;;;;;0.20;0.20;;;;;;;;;;5061617;28;20542;-72
2023/01/23 09:48:21;;;;;;;0.20;0.20;;;;;;;;;;5076079;28;20232;-71
2023/01/23 09:50:53;;;;;;;0.30;0.30;;;;;;;;;;5061303;28;20309;-73
2023/01/23 09:53:21;;;;;;;0.20;0.20;;;;;;;;;;5075803;28;20207;-70
2023/01/23 09:55:49;;;;;;;0.20;0.20;;;;;;;;;;5061269;28;20308;-72
2023/01/23 09:58:18;;;;;;;0.20;0.20;;;;;;;;;;5076201;28;20502;-72
2023/01/23 10:00:46;;;;;;;0.20;0.20;;;;;;;;;;5060667;28;20242;-71
2023/01/23 10:03:15;;;;;;;0.20;0.20;;;;;;;;;;5076596;28;20206;-73
2023/01/23 10:05:43;;;;;;;0.20;0.20;;;;;;;;;;5060333;28;20565;-72
2023/01/23 10:08:16;;;;;;;0.20;0.20;;;;;;;;;;5076823;28;20293;-71
2023/01/23 10:10:51;;;;;;;0.20;0.20;;;;;;;;;;5060396;28;20626;-71
2023/01/23 10:13:19;;;;;;;0.20;0.20;;;;;;;;;;5075674;28;20206;-70
2023/01/23 10:16:08;;;;;;;0.20;0.20;;;;;;;;;;5060674;28;20257;-71
2023/01/23 10:18:41;;;;;;;0.20;0.20;;;;;;;;;;5073460;28;20239;-71
2023/01/23 10:21:15;;;;;;;0.30;0.30;;;;;;;;;;5063234;28;20244;-71
2023/01/23 10:23:47;;;;;;;0.20;0.20;;;;;;;;;;5072498;28;20237;-70
2023/01/23 10:26:15;;;;;;;0.20;0.20;;;;;;;;;;5063875;28;20249;-71
2023/01/23 10:28:42;;;;;;;0.20;0.20;;;;;;;;;;5072248;28;20253;-70
2023/01/23 10:31:11;;;;;;;0.27;0.27;;;;;;;;;;5063514;28;20245;-71
2023/01/23 10:33:45;;;;;;;0.20;0.20;;;;;;;;;;5072729;28;20273;-72
2023/01/23 10:36:18;;;;;;;0.20;0.20;;;;;;;;;;5063542;28;20313;-71
2023/01/23 10:38:48;;;;;;;0.83;0.83;;;;;;;;;;5071885;28;20277;-73
2023/01/23 10:41:18;;;;;;;0.30;0.30;;;;;;;;;;5063751;28;20240;-72
2023/01/23 10:43:46;;;;;;;0.20;0.20;;;;;;;;;;5071851;28;20203;-73
2023/01/23 10:46:13;;;;;;;0.20;0.20;;;;;;;;;;5063481;28;20301;-70
2023/01/23 10:48:42;;;;;;;0.20;0.20;;;;;;;;;;5072361;28;20243;-74
2023/01/23 10:51:25;;;;;;;2.00;2.00;;;;;;;;;;5063030;28;20237;-71
2023/01/23 10:54:11;;;;;;;0.30;0.30;;;;;;;;;;5070768;28;20205;-71
2023/01/23 10:56:45;;;;;;;0.20;0.20;;;;;;;;;;5066733;28;20238;-71
2023/01/23 10:59:17;;;;;;;0.20;0.20;;;;;;;;;;5067774;28;20222;-70
2023/01/23 11:01:53;;;;;;;0.20;0.20;;;;;;;;;;5067195;28;20378;-71
2023/01/23 11:04:23;;;;;;;0.20;0.20;;;;;;;;;;5066665;28;20261;-70
2023/01/23 11:06:59;;;;;;;0.23;0.23;;;;;;;;;;5067963;28;20303;-71
2023/01/23 11:09:26;;;;;;;0.10;0.10;;;;;;;;;;5066050;28;20320;-72
2023/01/23 11:11:59;;;;;;;0.37;0.37;;;;;;;;;;5067991;28;20301;-72
2023/01/23 11:14:25;;;;;;;0.77;0.77;;;;;;;;;;5065859;28;20202;-71
2023/01/23 11:16:59;;;;;;;0.20;0.20;;;;;;;;;;5067848;28;20242;-72
2023/01/23 11:19:26;;;;;;;0.20;0.20;;;;;;;;;;5065710;28;20226;-71
2023/01/23 11:21:54;;;;;;;0.20;0.20;;;;;;;;;;5068209;28;20238;-72
2023/01/23 11:24:22;;;;;;;0.20;0.20;;;;;;;;;;5066514;28;20278;-71
2023/01/23 11:26:53;;;;;;;0.23;0.23;;;;;;;;;;5067386;28;20589;-71
2023/01/23 11:29:20;;;;;;;0.30;0.30;;;;;;;;;;5066330;28;20271;-73
2023/01/23 11:31:48;;;;;;;0.20;0.20;;;;;;;;;;5067060;28;20246;-70
2023/01/23 11:34:16;;;;;;;0.20;0.20;;;;;;;;;;5066798;28;20234;-70
2023/01/23 11:36:48;;;;;;;3.80;3.50;;;;;;;;;;5066431;28;20305;-71
2023/01/23 11:39:20;;;;;;;0.20;0.20;;;;;;;;;;5066944;28;20191;-72
2023/01/23 11:41:47;;;;;;;0.20;0.20;;;;;;;;;;5066944;28;20508;-71
2023/01/23 11:44:16;;;;;;;0.67;0.67;;;;;;;;;;5067096;28;20293;-71
2023/01/23 11:46:53;;;;;;;0.20;0.20;;;;;;;;;;5066395;28;20242;-71
2023/01/23 11:49:25;;;;;;;0.20;0.20;;;;;;;;;;5066210;28;20262;-70
2023/01/23 11:52:01;;;;;;;1.77;1.63;;;;;;;;;;5067259;28;20245;-70
2023/01/23 11:54:39;;;;;;;0.20;0.20;;;;;;;;;;5064867;28;20195;-71
2023/01/23 11:57:10;;;;;;;0.20;0.20;;;;;;;;;;5069121;28;20262;-72
2023/01/23 11:59:44;;;;;;;0.20;0.20;;;;;;;;;;5064005;28;20262;-71
2023/01/23 12:02:35;;;;;;;2.43;2.37;;;;;;;;;;5069219;28;20332;-71
2023/01/23 12:05:24;;;;;;;0.20;0.20;;;;;;;;;;5008128;28;20280;-72
2023/01/23 12:07:57;;;;;;;0.20;0.20;;;;;;;;;;5064005;28;20210;-71
2023/01/23 12:10:28;;;;;;;0.20;0.20;;;;;;;;;;5053592;28;20223;-72
2023/01/23 12:13:02;;;;;;;0.20;0.20;;;;;;;;;;5063057;28;20233;-71
2023/01/23 12:15:34;;;;;;;0.60;0.60;;;;;;;;;;5053392;28;20257;-71
2023/01/23 12:18:06;;;;;;;4.10;3.80;;;;;;;;;;5063146;28;20207;-71
2023/01/23 12:20:41;;;;;;;0.20;0.20;;;;;;;;;;5053658;28;20242;-72
2023/01/23 12:23:15;;;;;;;0.20;0.20;;;;;;;;;;5063114;28;20266;-72
2023/01/23 12:25:45;;;;;;;0.20;0.20;;;;;;;;;;5053606;28;20296;-72
2023/01/23 12:28:19;;;;;;;0.20;0.20;;;;;;;;;;5063017;28;20421;-72
2023/01/23 12:31:07;;;;;;;0.20;0.20;;;;;;;;;;5053280;28;20241;-71
2023/01/23 12:33:41;;;;;;;0.20;0.20;;;;;;;;;;5063259;28;20207;-72
2023/01/23 12:36:17;;;;;;;0.20;0.20;;;;;;;;;;5053103;28;20313;-70
2023/01/23 12:38:49;;;;;;;0.20;0.20;;;;;;;;;;5063307;28;20278;-72
2023/01/23 12:41:20;;;;;;;0.20;0.20;;;;;;;;;;5052783;28;20297;-72
2023/01/23 12:43:49;;;;;;;0.20;0.20;;;;;;;;;;5063277;28;20207;-72
2023/01/23 12:46:18;;;;;;;0.20;0.20;;;;;;;;;;5052848;28;20246;-72
2023/01/23 12:48:46;;;;;;;0.20;0.20;;;;;;;;;;5063086;28;20207;-71
2023/01/23 12:51:16;;;;;;;0.20;0.20;;;;;;;;;;5052703;28;20628;-70
2023/01/23 12:53:44;;;;;;;0.67;0.67;;;;;;;;;;5062982;28;20206;-72
2023/01/23 12:56:14;;;;;;;0.30;0.30;;;;;;;;;;5052795;28;20257;-72
2023/01/23 12:58:45;;;;;;;0.40;0.40;;;;;;;;;;5062807;28;20210;-72
2023/01/23 13:01:32;;;;;;;0.20;0.20;;;;;;;;;;5052646;28;20305;-73
2023/01/23 13:04:04;;;;;;;0.20;0.20;;;;;;;;;;5057844;28;20466;-71
2023/01/23 13:06:55;;;;;;;0.80;0.80;;;;;;;;;;5052369;28;20338;-71
2023/01/23 13:09:28;;;;;;;0.20;0.20;;;;;;;;;;5062925;28;20213;-71
2023/01/23 13:12:02;;;;;;;0.20;0.20;;;;;;;;;;5052501;28;20309;-73
2023/01/23 13:14:42;;;;;;;0.93;0.93;;;;;;;;;;5067168;28;20266;-72
2023/01/23 13:17:27;;;;;;;0.20;0.20;;;;;;;;;;5055875;28;20579;-71
2023/01/23 13:22:38;;;;;;;0.87;0.87;;;;;;;;;;5055475;28;20265;-72
2023/01/23 13:25:12;;;;;;;0.20;0.20;;;;;;;;;;5067118;28;20215;-72
2023/01/23 13:27:43;;;;;;;0.20;0.20;;;;;;;;;;5055353;28;20529;-71
2023/01/23 13:30:31;;;;;;;0.20;0.20;;;;;;;;;;5056491;28;20196;-72
2023/01/23 13:33:02;;;;;;;1.90;1.90;;;;;;;;;;5065889;28;20207;-72
2023/01/23 13:35:59;;;;;;;3.80;3.60;;;;;;;;;;5056554;28;20397;-72
2023/01/23 13:38:30;;;;;;;7.93;7.53;;;;;;;;;;5015767;28;20208;-71
2023/01/23 13:41:17;;;;;;;0.20;0.20;;;;;;;;;;5047613;28;20257;-71
2023/01/23 13:43:51;;;;;;;0.20;0.20;;;;;;;;;;5065756;28;20221;-71
2023/01/23 13:46:22;;;;;;;3.50;3.20;;;;;;;;;;5055621;28;20308;-71
2023/01/23 13:51:36;;;;;;;0.20;0.20;;;;;;;;;;5055453;28;20269;-71
2023/01/23 13:56:48;;;;;;;0.53;0.53;;;;;;;;;;5055179;28;20322;-70
2023/01/23 13:59:26;;;;;;;0.20;0.20;;;;;;;;;;5066316;28;20211;-69
2023/01/23 14:07:41;;;;;;;0.83;0.83;;;;;;;;;;5055063;28;20285;-73
2023/01/23 14:10:13;;;;;;;0.20;0.20;;;;;;;;;;5058107;28;20211;-70
2023/01/23 14:12:39;;;;;;;0.20;0.20;;;;;;;;;;5065132;28;20283;-72
2023/01/23 14:18:03;;;;;;;0.20;0.20;;;;;;;;;;5084406;28;20306;-73
2023/01/23 14:20:31;;;;;;;0.20;0.20;;;;;;;;;;5075236;28;20246;-73
2023/01/23 14:22:58;;;;;;;0.20;0.20;;;;;;;;;;5077591;28;20253;-73
2023/01/23 14:25:25;;;;;;;0.20;0.20;;;;;;;;;;5057656;28;20206;-73
2023/01/23 14:28:01;;;;;;;0.20;0.20;;;;;;;;;;5078870;28;20239;-69
2023/01/23 14:30:30;;;;;;;0.20;0.20;;;;;;;;;;5058239;28;20530;-68
2023/01/23 14:32:57;;;;;;;0.20;0.20;;;;;;;;;;5078315;28;20207;-68
2023/01/23 14:35:25;;;;;;;0.20;0.20;;;;;;;;;;5057695;28;20257;-68
2023/01/23 14:37:53;;;;;;;0.20;0.20;;;;;;;;;;5078688;28;20295;-68
2023/01/23 14:40:20;;;;;;;2.47;2.13;;;;;;;;;;5056602;28;20246;-67
2023/01/23 14:42:52;;;;;;;0.30;0.30;;;;;;;;;;5079212;28;20227;-70
2023/01/23 14:45:18;;;;;;;0.30;0.30;;;;;;;;;;5056541;28;20202;-69
2023/01/23 14:47:46;;;;;;;0.43;0.43;;;;;;;;;;5079425;28;20281;-70
2023/01/23 14:50:16;;;;;;;0.53;0.53;;;;;;;;;;5055704;28;20277;-69
2023/01/23 14:52:43;;;;;;;0.30;0.30;;;;;;;;;;5079426;28;20396;-69
2023/01/23 14:55:20;;;;;;;0.87;0.80;;;;;;;;;;5055099;28;20278;-69
2023/01/23 14:57:47;;;;;;;0.30;0.30;;;;;;;;;;5079067;28;20278;-69
2023/01/23 15:00:14;;;;;;;0.27;0.27;;;;;;;;;;5055574;28;20230;-70
2023/01/23 15:02:42;;;;;;;0.40;0.40;;;;;;;;;;5079524;28;20265;-69
2023/01/23 15:05:17;;;;;;;0.20;0.20;;;;;;;;;;5055218;28;20206;-69
2023/01/23 15:07:44;;;;;;;0.20;0.20;;;;;;;;;;5079024;28;20209;-70
2023/01/23 15:10:13;;;;;;;0.20;0.20;;;;;;;;;;5055349;28;20242;-70
2023/01/23 15:12:46;;;;;;;0.20;0.20;;;;;;;;;;5079591;28;20214;-70
2023/01/23 15:15:17;;;;;;;0.20;0.20;;;;;;;;;;5055162;28;20226;-70